Airfield :
LOGIN :

Register | Disclaimer

   EN    FR    IT 

 










Legend :    VFR   Marginal VFR   IFR   Intensive IFR   Very Intensive IFR
Visi :
Ceiling :
>= 8 km
>= 3000ft
5 to 8 km
1000 to 3000 ft
1500m to 5 km
500 to 1000 ft
800 to 1500m
200 to 500 ft
< 800m
< 200 ft
Symbols :   Thunderstorms  Fog  Heavy snow  Heavy precipitations  Wind > 20 kt
SIGMETs :     Misc.  Thunderstorms  Icing  Turbulence  Mountain Waves  Volcanic Ashes







- Airport Elevation : 70 ft
- IATA code : LEI


LEAM - Almeria

CURRENT METAR :
  • 200900Z 00000KT CAVOK 18/05 Q1023

EXPIRED METARs :
  • 200830Z 34002KT CAVOK 15/04 Q1023
  • 200800Z 34005KT CAVOK 13/03 Q1023
  • 200730Z 33008KT CAVOK 12/03 Q1023
  • 200700Z 34006KT CAVOK 10/05 Q1023
  • 200630Z 35006KT 310V010 CAVOK 11/05 Q1022

TAF TAF LEAM
Valid from the 20 at 09:00 until the 21 at 09:00 UTC


200800Z 2009/2109 02006KT 9999 FEW025 TX22/2013Z TN09/2106Z
BECMG 2011/2013 17010KT
BECMG 2016/2019 01006KT
No reported NOTAMs for that airfield.



MET'MAP, your aeronautical weather chart ! - Copyright ORBIFLY December 2007 - Disclaimer

ORBIFLY MET'MAP TEAM :

Programming & Development : Alexandra Zaïnal
Concept & Development : Baudouin d'Aumeries
Co-Development & Prog : Marc-Olivier Méhu
Technical & hardware support : Manuel Goepfert

Contact : metmap@orbifly.com




SOURCES & CREDITS :

   NOAA